sensor_id;sensor_type;location;lat;lon;timestamp;P1;durP1;ratioP1;P2;durP2;ratioP2
35877;SDS011;21982;49.804;24.072;2022-09-24T00:03:39;15.68;;;9.18;;
35877;SDS011;21982;49.804;24.072;2022-09-24T00:06:07;18.38;;;10.52;;
35877;SDS011;21982;49.804;24.072;2022-09-24T00:08:38;17.70;;;9.82;;
35877;SDS011;21982;49.804;24.072;2022-09-24T00:11:05;16.90;;;9.50;;
35877;SDS011;21982;49.804;24.072;2022-09-24T00:13:34;18.75;;;9.43;;
35877;SDS011;21982;49.804;24.072;2022-09-24T00:16:06;18.98;;;10.15;;
35877;SDS011;21982;49.804;24.072;2022-09-24T00:18:34;16.00;;;10.03;;
35877;SDS011;21982;49.804;24.072;2022-09-24T00:20:59;22.88;;;11.25;;
35877;SDS011;21982;49.804;24.072;2022-09-24T00:23:35;15.75;;;9.55;;
35877;SDS011;21982;49.804;24.072;2022-09-24T00:26:00;19.65;;;10.63;;
35877;SDS011;21982;49.804;24.072;2022-09-24T00:28:44;18.55;;;9.50;;
35877;SDS011;21982;49.804;24.072;2022-09-24T00:31:10;17.67;;;10.95;;
35877;SDS011;21982;49.804;24.072;2022-09-24T00:33:35;15.98;;;9.32;;
35877;SDS011;21982;49.804;24.072;2022-09-24T00:36:02;16.30;;;10.73;;
35877;SDS011;21982;49.804;24.072;2022-09-24T00:38:32;17.80;;;9.95;;
35877;SDS011;21982;49.804;24.072;2022-09-24T00:40:58;19.98;;;10.25;;
35877;SDS011;21982;49.804;24.072;2022-09-24T00:43:31;18.40;;;9.57;;
35877;SDS011;21982;49.804;24.072;2022-09-24T00:48:40;17.73;;;9.98;;
35877;SDS011;21982;49.804;24.072;2022-09-24T00:51:11;17.90;;;10.07;;
35877;SDS011;21982;49.804;24.072;2022-09-24T00:53:40;20.13;;;10.65;;
35877;SDS011;21982;49.804;24.072;2022-09-24T00:56:08;20.20;;;11.85;;
35877;SDS011;21982;49.804;24.072;2022-09-24T00:58:36;24.50;;;12.63;;
35877;SDS011;21982;49.804;24.072;2022-09-24T01:01:06;18.75;;;12.90;;
35877;SDS011;21982;49.804;24.072;2022-09-24T01:03:32;23.20;;;13.00;;
35877;SDS011;21982;49.804;24.072;2022-09-24T01:06:04;22.88;;;13.38;;
35877;SDS011;21982;49.804;24.072;2022-09-24T01:08:29;23.25;;;12.73;;
35877;SDS011;21982;49.804;24.072;2022-09-24T01:18:45;22.95;;;11.85;;
35877;SDS011;21982;49.804;24.072;2022-09-24T01:21:38;20.17;;;10.48;;
35877;SDS011;21982;49.804;24.072;2022-09-24T01:27:13;17.88;;;11.30;;
35877;SDS011;21982;49.804;24.072;2022-09-24T01:32:37;20.92;;;10.90;;
35877;SDS011;21982;49.804;24.072;2022-09-24T01:35:39;20.50;;;12.05;;
35877;SDS011;21982;49.804;24.072;2022-09-24T01:37:58;18.00;;;10.32;;
35877;SDS011;21982;49.804;24.072;2022-09-24T01:40:27;21.05;;;11.20;;
35877;SDS011;21982;49.804;24.072;2022-09-24T01:42:56;19.73;;;10.60;;
35877;SDS011;21982;49.804;24.072;2022-09-24T01:45:25;18.02;;;10.23;;
35877;SDS011;21982;49.804;24.072;2022-09-24T01:47:56;20.42;;;10.88;;
35877;SDS011;21982;49.804;24.072;2022-09-24T01:50:24;16.88;;;10.27;;
35877;SDS011;21982;49.804;24.072;2022-09-24T01:52:57;19.17;;;10.90;;
35877;SDS011;21982;49.804;24.072;2022-09-24T01:55:27;18.42;;;9.45;;
35877;SDS011;21982;49.804;24.072;2022-09-24T01:58:00;20.13;;;11.15;;
35877;SDS011;21982;49.804;24.072;2022-09-24T02:00:31;18.67;;;10.10;;
35877;SDS011;21982;49.804;24.072;2022-09-24T02:02:59;18.50;;;10.48;;
35877;SDS011;21982;49.804;24.072;2022-09-24T02:05:43;15.38;;;9.77;;
35877;SDS011;21982;49.804;24.072;2022-09-24T02:08:22;16.92;;;8.80;;
35877;SDS011;21982;49.804;24.072;2022-09-24T02:10:55;18.45;;;9.70;;
35877;SDS011;21982;49.804;24.072;2022-09-24T02:13:27;17.27;;;9.73;;
35877;SDS011;21982;49.804;24.072;2022-09-24T02:16:04;18.58;;;9.70;;
35877;SDS011;21982;49.804;24.072;2022-09-24T02:18:38;16.42;;;10.25;;
35877;SDS011;21982;49.804;24.072;2022-09-24T02:21:08;17.15;;;8.65;;
35877;SDS011;21982;49.804;24.072;2022-09-24T02:23:39;16.15;;;9.80;;
35877;SDS011;21982;49.804;24.072;2022-09-24T02:26:08;15.02;;;7.82;;
35877;SDS011;21982;49.804;24.072;2022-09-24T02:28:34;17.25;;;8.95;;
35877;SDS011;21982;49.804;24.072;2022-09-24T02:33:34;16.58;;;9.25;;
35877;SDS011;21982;49.804;24.072;2022-09-24T02:36:22;15.48;;;9.02;;
35877;SDS011;21982;49.804;24.072;2022-09-24T02:38:49;14.63;;;8.23;;
35877;SDS011;21982;49.804;24.072;2022-09-24T02:41:15;17.00;;;9.20;;
35877;SDS011;21982;49.804;24.072;2022-09-24T02:43:41;13.45;;;7.97;;
35877;SDS011;21982;49.804;24.072;2022-09-24T02:46:06;18.80;;;10.43;;
35877;SDS011;21982;49.804;24.072;2022-09-24T02:48:34;19.38;;;10.82;;
35877;SDS011;21982;49.804;24.072;2022-09-24T02:51:00;17.88;;;9.98;;
35877;SDS011;21982;49.804;24.072;2022-09-24T02:53:28;15.35;;;8.88;;
35877;SDS011;21982;49.804;24.072;2022-09-24T02:55:54;18.02;;;10.63;;
35877;SDS011;21982;49.804;24.072;2022-09-24T02:58:25;17.80;;;9.65;;
35877;SDS011;21982;49.804;24.072;2022-09-24T03:00:55;15.68;;;8.88;;
35877;SDS011;21982;49.804;24.072;2022-09-24T03:03:24;17.58;;;9.15;;
35877;SDS011;21982;49.804;24.072;2022-09-24T03:05:51;19.42;;;9.25;;
35877;SDS011;21982;49.804;24.072;2022-09-24T03:08:20;15.00;;;8.30;;
35877;SDS011;21982;49.804;24.072;2022-09-24T03:10:54;18.35;;;9.90;;
35877;SDS011;21982;49.804;24.072;2022-09-24T03:13:26;15.20;;;8.88;;
35877;SDS011;21982;49.804;24.072;2022-09-24T03:15:51;17.88;;;9.57;;
35877;SDS011;21982;49.804;24.072;2022-09-24T03:18:17;14.07;;;8.27;;
35877;SDS011;21982;49.804;24.072;2022-09-24T03:20:42;16.20;;;8.68;;
35877;SDS011;21982;49.804;24.072;2022-09-24T03:23:08;15.77;;;10.13;;
35877;SDS011;21982;49.804;24.072;2022-09-24T03:25:33;17.55;;;8.75;;
35877;SDS011;21982;49.804;24.072;2022-09-24T03:27:58;15.73;;;9.18;;
35877;SDS011;21982;49.804;24.072;2022-09-24T03:30:24;15.57;;;10.38;;
35877;SDS011;21982;49.804;24.072;2022-09-24T03:33:08;17.63;;;8.32;;
35877;SDS011;21982;49.804;24.072;2022-09-24T03:35:34;16.50;;;9.07;;
35877;SDS011;21982;49.804;24.072;2022-09-24T03:37:59;14.98;;;8.88;;
35877;SDS011;21982;49.804;24.072;2022-09-24T03:40:24;17.02;;;8.98;;
35877;SDS011;21982;49.804;24.072;2022-09-24T03:42:50;16.15;;;9.15;;
35877;SDS011;21982;49.804;24.072;2022-09-24T03:45:15;18.63;;;10.15;;
35877;SDS011;21982;49.804;24.072;2022-09-24T03:47:41;16.35;;;9.77;;
35877;SDS011;21982;49.804;24.072;2022-09-24T03:50:10;17.67;;;10.30;;
35877;SDS011;21982;49.804;24.072;2022-09-24T03:52:36;16.13;;;9.25;;
35877;SDS011;21982;49.804;24.072;2022-09-24T03:55:04;14.63;;;8.48;;
35877;SDS011;21982;49.804;24.072;2022-09-24T03:57:31;15.63;;;9.27;;
35877;SDS011;21982;49.804;24.072;2022-09-24T03:59:56;21.77;;;10.98;;
35877;SDS011;21982;49.804;24.072;2022-09-24T04:02:23;18.95;;;9.93;;
35877;SDS011;21982;49.804;24.072;2022-09-24T04:04:48;17.23;;;9.85;;
35877;SDS011;21982;49.804;24.072;2022-09-24T04:07:14;19.60;;;11.45;;
35877;SDS011;21982;49.804;24.072;2022-09-24T04:09:40;15.68;;;9.13;;
35877;SDS011;21982;49.804;24.072;2022-09-24T04:12:05;19.65;;;10.63;;
35877;SDS011;21982;49.804;24.072;2022-09-24T04:14:31;17.92;;;10.05;;
35877;SDS011;21982;49.804;24.072;2022-09-24T04:16:56;18.02;;;9.43;;
35877;SDS011;21982;49.804;24.072;2022-09-24T04:19:22;18.25;;;8.35;;
35877;SDS011;21982;49.804;24.072;2022-09-24T04:21:51;19.55;;;7.70;;
35877;SDS011;21982;49.804;24.072;2022-09-24T04:24:17;14.25;;;8.70;;
35877;SDS011;21982;49.804;24.072;2022-09-24T04:26:45;16.63;;;9.15;;
35877;SDS011;21982;49.804;24.072;2022-09-24T04:29:11;15.98;;;9.40;;
35877;SDS011;21982;49.804;24.072;2022-09-24T04:31:51;17.73;;;10.45;;
35877;SDS011;21982;49.804;24.072;2022-09-24T04:34:20;18.95;;;10.15;;
35877;SDS011;21982;49.804;24.072;2022-09-24T04:36:49;15.90;;;8.80;;
35877;SDS011;21982;49.804;24.072;2022-09-24T04:39:14;16.00;;;9.15;;
35877;SDS011;21982;49.804;24.072;2022-09-24T04:41:39;20.50;;;10.25;;
35877;SDS011;21982;49.804;24.072;2022-09-24T04:44:12;14.45;;;8.52;;
35877;SDS011;21982;49.804;24.072;2022-09-24T04:46:39;14.52;;;8.75;;
35877;SDS011;21982;49.804;24.072;2022-09-24T04:49:05;19.52;;;9.57;;
35877;SDS011;21982;49.804;24.072;2022-09-24T04:51:38;18.17;;;10.38;;
35877;SDS011;21982;49.804;24.072;2022-09-24T04:54:03;19.58;;;9.50;;
35877;SDS011;21982;49.804;24.072;2022-09-24T04:56:30;19.05;;;9.35;;
35877;SDS011;21982;49.804;24.072;2022-09-24T04:59:01;21.63;;;9.60;;
35877;SDS011;21982;49.804;24.072;2022-09-24T05:01:27;20.77;;;10.75;;
35877;SDS011;21982;49.804;24.072;2022-09-24T05:03:56;27.20;;;11.05;;
35877;SDS011;21982;49.804;24.072;2022-09-24T05:06:28;20.20;;;11.18;;
35877;SDS011;21982;49.804;24.072;2022-09-24T05:08:53;19.13;;;9.70;;
35877;SDS011;21982;49.804;24.072;2022-09-24T05:11:27;19.95;;;9.73;;
35877;SDS011;21982;49.804;24.072;2022-09-24T05:13:56;15.90;;;10.02;;
35877;SDS011;21982;49.804;24.072;2022-09-24T05:16:22;17.52;;;9.13;;
35877;SDS011;21982;49.804;24.072;2022-09-24T05:18:48;14.05;;;9.48;;
35877;SDS011;21982;49.804;24.072;2022-09-24T05:21:19;15.25;;;9.05;;
35877;SDS011;21982;49.804;24.072;2022-09-24T05:23:46;17.40;;;9.77;;
35877;SDS011;21982;49.804;24.072;2022-09-24T05:26:18;18.52;;;10.90;;
35877;SDS011;21982;49.804;24.072;2022-09-24T05:29:02;21.83;;;12.45;;
35877;SDS011;21982;49.804;24.072;2022-09-24T05:31:34;22.55;;;13.23;;
35877;SDS011;21982;49.804;24.072;2022-09-24T05:34:02;20.75;;;12.27;;
35877;SDS011;21982;49.804;24.072;2022-09-24T05:36:37;24.02;;;15.05;;
35877;SDS011;21982;49.804;24.072;2022-09-24T05:39:13;20.25;;;12.88;;
35877;SDS011;21982;49.804;24.072;2022-09-24T05:42:12;22.73;;;14.30;;
35877;SDS011;21982;49.804;24.072;2022-09-24T05:44:36;26.35;;;16.95;;
35877;SDS011;21982;49.804;24.072;2022-09-24T05:47:23;23.20;;;14.40;;
35877;SDS011;21982;49.804;24.072;2022-09-24T05:49:52;22.77;;;12.18;;
35877;SDS011;21982;49.804;24.072;2022-09-24T05:52:21;24.40;;;14.70;;
35877;SDS011;21982;49.804;24.072;2022-09-24T05:54:46;16.73;;;10.70;;
35877;SDS011;21982;49.804;24.072;2022-09-24T05:57:14;18.80;;;10.65;;
35877;SDS011;21982;49.804;24.072;2022-09-24T05:59:43;15.82;;;8.60;;
35877;SDS011;21982;49.804;24.072;2022-09-24T06:02:14;15.00;;;9.47;;
35877;SDS011;21982;49.804;24.072;2022-09-24T06:04:43;13.40;;;7.60;;
35877;SDS011;21982;49.804;24.072;2022-09-24T06:07:14;13.45;;;7.88;;
35877;SDS011;21982;49.804;24.072;2022-09-24T06:09:43;17.65;;;9.00;;
35877;SDS011;21982;49.804;24.072;2022-09-24T06:12:09;15.43;;;8.98;;
35877;SDS011;21982;49.804;24.072;2022-09-24T06:14:41;13.75;;;8.13;;
35877;SDS011;21982;49.804;24.072;2022-09-24T06:17:13;18.25;;;9.55;;
35877;SDS011;21982;49.804;24.072;2022-09-24T06:19:39;19.15;;;8.30;;
35877;SDS011;21982;49.804;24.072;2022-09-24T06:22:10;16.67;;;7.53;;
35877;SDS011;21982;49.804;24.072;2022-09-24T06:24:42;13.70;;;8.95;;
35877;SDS011;21982;49.804;24.072;2022-09-24T06:27:08;15.00;;;9.45;;
35877;SDS011;21982;49.804;24.072;2022-09-24T06:29:34;15.70;;;8.55;;
35877;SDS011;21982;49.804;24.072;2022-09-24T06:32:06;14.73;;;8.48;;
35877;SDS011;21982;49.804;24.072;2022-09-24T06:34:40;16.95;;;8.60;;
35877;SDS011;21982;49.804;24.072;2022-09-24T06:37:05;18.05;;;10.55;;
35877;SDS011;21982;49.804;24.072;2022-09-24T06:39:31;16.60;;;8.98;;
35877;SDS011;21982;49.804;24.072;2022-09-24T06:41:59;16.63;;;7.70;;
35877;SDS011;21982;49.804;24.072;2022-09-24T06:44:24;17.23;;;9.38;;
35877;SDS011;21982;49.804;24.072;2022-09-24T06:46:51;11.07;;;7.10;;
35877;SDS011;21982;49.804;24.072;2022-09-24T06:49:17;15.32;;;8.25;;
35877;SDS011;21982;49.804;24.072;2022-09-24T06:51:42;13.25;;;8.23;;
35877;SDS011;21982;49.804;24.072;2022-09-24T06:54:07;11.25;;;6.70;;
35877;SDS011;21982;49.804;24.072;2022-09-24T06:56:33;14.48;;;9.13;;
35877;SDS011;21982;49.804;24.072;2022-09-24T06:58:58;14.85;;;8.30;;
35877;SDS011;21982;49.804;24.072;2022-09-24T07:01:26;15.20;;;9.45;;
35877;SDS011;21982;49.804;24.072;2022-09-24T07:03:52;13.32;;;7.53;;
35877;SDS011;21982;49.804;24.072;2022-09-24T07:06:18;13.75;;;7.50;;
35877;SDS011;21982;49.804;24.072;2022-09-24T07:08:50;10.43;;;6.63;;
35877;SDS011;21982;49.804;24.072;2022-09-24T07:11:18;11.02;;;6.85;;
35877;SDS011;21982;49.804;24.072;2022-09-24T07:13:45;11.65;;;6.30;;
35877;SDS011;21982;49.804;24.072;2022-09-24T07:16:11;11.10;;;6.38;;
35877;SDS011;21982;49.804;24.072;2022-09-24T07:18:43;11.88;;;6.88;;
35877;SDS011;21982;49.804;24.072;2022-09-24T07:21:08;14.43;;;6.50;;
35877;SDS011;21982;49.804;24.072;2022-09-24T07:23:34;12.50;;;6.60;;
35877;SDS011;21982;49.804;24.072;2022-09-24T07:26:00;14.02;;;6.07;;
35877;SDS011;21982;49.804;24.072;2022-09-24T07:28:25;12.15;;;6.68;;
35877;SDS011;21982;49.804;24.072;2022-09-24T07:30:55;11.05;;;5.80;;
35877;SDS011;21982;49.804;24.072;2022-09-24T07:33:23;9.18;;;5.35;;
35877;SDS011;21982;49.804;24.072;2022-09-24T07:35:56;10.55;;;5.68;;
35877;SDS011;21982;49.804;24.072;2022-09-24T07:38:22;12.05;;;5.32;;
35877;SDS011;21982;49.804;24.072;2022-09-24T07:40:50;11.75;;;5.95;;
35877;SDS011;21982;49.804;24.072;2022-09-24T07:43:19;10.43;;;6.13;;
35877;SDS011;21982;49.804;24.072;2022-09-24T07:45:45;10.77;;;5.25;;
35877;SDS011;21982;49.804;24.072;2022-09-24T07:48:11;8.80;;;5.28;;
35877;SDS011;21982;49.804;24.072;2022-09-24T07:50:38;8.02;;;4.05;;
35877;SDS011;21982;49.804;24.072;2022-09-24T07:53:05;10.88;;;4.22;;
35877;SDS011;21982;49.804;24.072;2022-09-24T07:55:34;9.30;;;3.97;;
35877;SDS011;21982;49.804;24.072;2022-09-24T07:58:05;10.23;;;4.00;;
35877;SDS011;21982;49.804;24.072;2022-09-24T08:00:33;9.85;;;4.85;;
35877;SDS011;21982;49.804;24.072;2022-09-24T08:03:00;8.10;;;4.05;;
35877;SDS011;21982;49.804;24.072;2022-09-24T08:05:28;6.72;;;3.60;;
35877;SDS011;21982;49.804;24.072;2022-09-24T08:07:57;6.88;;;3.80;;
35877;SDS011;21982;49.804;24.072;2022-09-24T08:10:23;7.93;;;3.60;;
35877;SDS011;21982;49.804;24.072;2022-09-24T08:12:51;10.90;;;3.85;;
35877;SDS011;21982;49.804;24.072;2022-09-24T08:15:18;8.48;;;4.45;;
35877;SDS011;21982;49.804;24.072;2022-09-24T08:17:47;6.25;;;3.42;;
35877;SDS011;21982;49.804;24.072;2022-09-24T08:20:12;7.50;;;3.67;;
35877;SDS011;21982;49.804;24.072;2022-09-24T08:22:38;9.25;;;3.15;;
35877;SDS011;21982;49.804;24.072;2022-09-24T08:25:09;7.65;;;3.63;;
35877;SDS011;21982;49.804;24.072;2022-09-24T08:27:44;8.27;;;4.38;;
35877;SDS011;21982;49.804;24.072;2022-09-24T08:30:16;8.25;;;4.53;;
35877;SDS011;21982;49.804;24.072;2022-09-24T08:32:45;8.18;;;3.33;;
35877;SDS011;21982;49.804;24.072;2022-09-24T08:35:16;8.10;;;4.05;;
35877;SDS011;21982;49.804;24.072;2022-09-24T08:37:45;7.70;;;4.40;;
35877;SDS011;21982;49.804;24.072;2022-09-24T08:40:21;9.68;;;3.50;;
35877;SDS011;21982;49.804;24.072;2022-09-24T08:43:16;8.27;;;4.05;;
35877;SDS011;21982;49.804;24.072;2022-09-24T08:45:51;6.70;;;2.95;;
35877;SDS011;21982;49.804;24.072;2022-09-24T08:48:41;6.47;;;3.30;;
35877;SDS011;21982;49.804;24.072;2022-09-24T08:51:16;7.45;;;2.97;;
35877;SDS011;21982;49.804;24.072;2022-09-24T08:56:29;8.00;;;3.13;;
35877;SDS011;21982;49.804;24.072;2022-09-24T08:59:04;9.48;;;4.22;;
35877;SDS011;21982;49.804;24.072;2022-09-24T09:09:38;6.38;;;3.03;;
35877;SDS011;21982;49.804;24.072;2022-09-24T09:12:12;7.15;;;3.42;;
35877;SDS011;21982;49.804;24.072;2022-09-24T09:17:35;5.97;;;2.65;;
35877;SDS011;21982;49.804;24.072;2022-09-24T09:20:16;6.03;;;2.53;;
35877;SDS011;21982;49.804;24.072;2022-09-24T09:22:47;4.95;;;2.53;;
35877;SDS011;21982;49.804;24.072;2022-09-24T09:25:32;6.40;;;2.55;;
35877;SDS011;21982;49.804;24.072;2022-09-24T09:28:03;6.10;;;2.47;;
35877;SDS011;21982;49.804;24.072;2022-09-24T09:30:39;6.15;;;3.20;;
35877;SDS011;21982;49.804;24.072;2022-09-24T09:36:14;4.97;;;2.88;;
35877;SDS011;21982;49.804;24.072;2022-09-24T09:41:33;5.70;;;2.42;;
35877;SDS011;21982;49.804;24.072;2022-09-24T09:44:27;6.82;;;2.85;;
35877;SDS011;21982;49.804;24.072;2022-09-24T09:49:31;4.97;;;2.50;;
35877;SDS011;21982;49.804;24.072;2022-09-24T09:52:09;7.22;;;2.20;;
35877;SDS011;21982;49.804;24.072;2022-09-24T09:54:39;4.65;;;2.10;;
35877;SDS011;21982;49.804;24.072;2022-09-24T09:57:12;4.15;;;1.63;;
35877;SDS011;21982;49.804;24.072;2022-09-24T09:59:43;5.22;;;1.77;;
35877;SDS011;21982;49.804;24.072;2022-09-24T10:02:10;7.03;;;1.70;;
35877;SDS011;21982;49.804;24.072;2022-09-24T10:04:46;3.88;;;2.08;;
35877;SDS011;21982;49.804;24.072;2022-09-24T10:07:22;4.50;;;2.42;;
35877;SDS011;21982;49.804;24.072;2022-09-24T10:09:56;4.70;;;2.40;;
35877;SDS011;21982;49.804;24.072;2022-09-24T10:12:25;4.00;;;1.65;;
35877;SDS011;21982;49.804;24.072;2022-09-24T10:15:04;5.80;;;1.92;;
35877;SDS011;21982;49.804;24.072;2022-09-24T10:17:49;2.80;;;1.50;;
35877;SDS011;21982;49.804;24.072;2022-09-24T10:20:29;4.10;;;1.70;;
35877;SDS011;21982;49.804;24.072;2022-09-24T10:23:02;3.63;;;1.45;;
35877;SDS011;21982;49.804;24.072;2022-09-24T10:31:04;3.93;;;2.40;;
35877;SDS011;21982;49.804;24.072;2022-09-24T10:33:36;6.05;;;2.38;;
35877;SDS011;21982;49.804;24.072;2022-09-24T10:36:05;4.75;;;2.38;;
35877;SDS011;21982;49.804;24.072;2022-09-24T10:38:47;4.80;;;2.00;;
35877;SDS011;21982;49.804;24.072;2022-09-24T10:43:55;10.00;;;2.55;;
35877;SDS011;21982;49.804;24.072;2022-09-24T11:06:01;7.07;;;1.80;;
35877;SDS011;21982;49.804;24.072;2022-09-24T11:22:39;8.88;;;1.98;;
35877;SDS011;21982;49.804;24.072;2022-09-24T11:27:55;2.67;;;1.30;;
35877;SDS011;21982;49.804;24.072;2022-09-24T11:36:07;5.47;;;2.08;;
35877;SDS011;21982;49.804;24.072;2022-09-24T11:44:22;5.55;;;2.00;;
35877;SDS011;21982;49.804;24.072;2022-09-24T11:52:46;6.45;;;2.55;;
35877;SDS011;21982;49.804;24.072;2022-09-24T12:01:02;6.63;;;2.00;;
35877;SDS011;21982;49.804;24.072;2022-09-24T12:06:08;7.93;;;2.47;;
35877;SDS011;21982;49.804;24.072;2022-09-24T12:08:54;4.60;;;1.92;;
35877;SDS011;21982;49.804;24.072;2022-09-24T12:11:38;7.30;;;2.10;;
35877;SDS011;21982;49.804;24.072;2022-09-24T12:14:20;8.90;;;3.40;;
35877;SDS011;21982;49.804;24.072;2022-09-24T12:16:55;5.68;;;2.20;;
35877;SDS011;21982;49.804;24.072;2022-09-24T12:19:41;6.95;;;2.53;;
35877;SDS011;21982;49.804;24.072;2022-09-24T12:22:19;3.42;;;1.83;;
35877;SDS011;21982;49.804;24.072;2022-09-24T12:24:53;3.65;;;2.03;;
35877;SDS011;21982;49.804;24.072;2022-09-24T12:27:25;7.10;;;3.13;;
35877;SDS011;21982;49.804;24.072;2022-09-24T12:33:38;3.33;;;1.88;;
35877;SDS011;21982;49.804;24.072;2022-09-24T12:38:59;8.18;;;2.47;;
35877;SDS011;21982;49.804;24.072;2022-09-24T12:41:42;6.22;;;2.22;;
35877;SDS011;21982;49.804;24.072;2022-09-24T12:44:33;5.20;;;2.10;;
35877;SDS011;21982;49.804;24.072;2022-09-24T12:47:27;4.35;;;2.35;;
35877;SDS011;21982;49.804;24.072;2022-09-24T12:49:57;5.32;;;2.42;;
35877;SDS011;21982;49.804;24.072;2022-09-24T12:55:21;3.85;;;2.00;;
35877;SDS011;21982;49.804;24.072;2022-09-24T13:02:57;4.38;;;2.58;;
35877;SDS011;21982;49.804;24.072;2022-09-24T13:10:53;4.15;;;2.15;;
35877;SDS011;21982;49.804;24.072;2022-09-24T13:13:28;3.83;;;1.58;;
35877;SDS011;21982;49.804;24.072;2022-09-24T13:16:00;5.78;;;2.58;;
35877;SDS011;21982;49.804;24.072;2022-09-24T13:18:28;7.10;;;3.42;;
35877;SDS011;21982;49.804;24.072;2022-09-24T13:21:17;4.80;;;2.45;;
35877;SDS011;21982;49.804;24.072;2022-09-24T13:23:47;4.18;;;2.13;;
35877;SDS011;21982;49.804;24.072;2022-09-24T13:50:21;4.85;;;2.85;;
35877;SDS011;21982;49.804;24.072;2022-09-24T13:52:57;6.32;;;2.25;;
35877;SDS011;21982;49.804;24.072;2022-09-24T13:55:49;4.07;;;2.03;;
35877;SDS011;21982;49.804;24.072;2022-09-24T13:58:36;3.88;;;2.13;;
35877;SDS011;21982;49.804;24.072;2022-09-24T14:01:09;4.75;;;2.53;;
35877;SDS011;21982;49.804;24.072;2022-09-24T14:03:41;5.50;;;2.03;;
35877;SDS011;21982;49.804;24.072;2022-09-24T14:06:36;7.38;;;2.88;;
35877;SDS011;21982;49.804;24.072;2022-09-24T14:11:56;8.07;;;4.18;;
35877;SDS011;21982;49.804;24.072;2022-09-24T14:14:25;5.80;;;3.33;;
35877;SDS011;21982;49.804;24.072;2022-09-24T14:17:05;8.23;;;3.70;;
35877;SDS011;21982;49.804;24.072;2022-09-24T14:19:37;9.63;;;3.45;;
35877;SDS011;21982;49.804;24.072;2022-09-24T14:22:45;5.22;;;2.55;;
35877;SDS011;21982;49.804;24.072;2022-09-24T14:27:41;12.05;;;3.60;;
35877;SDS011;21982;49.804;24.072;2022-09-24T14:30:20;6.47;;;3.55;;
35877;SDS011;21982;49.804;24.072;2022-09-24T14:32:54;6.43;;;2.47;;
35877;SDS011;21982;49.804;24.072;2022-09-24T14:35:29;5.90;;;2.85;;
35877;SDS011;21982;49.804;24.072;2022-09-24T14:38:03;5.72;;;3.13;;
35877;SDS011;21982;49.804;24.072;2022-09-24T14:40:48;6.05;;;3.05;;
35877;SDS011;21982;49.804;24.072;2022-09-24T14:43:27;5.70;;;2.72;;
35877;SDS011;21982;49.804;24.072;2022-09-24T14:54:34;5.82;;;3.08;;
35877;SDS011;21982;49.804;24.072;2022-09-24T14:59:42;6.50;;;3.10;;
35877;SDS011;21982;49.804;24.072;2022-09-24T15:04:50;6.70;;;3.40;;
35877;SDS011;21982;49.804;24.072;2022-09-24T15:07:26;4.85;;;3.28;;
35877;SDS011;21982;49.804;24.072;2022-09-24T15:09:54;7.15;;;3.85;;
35877;SDS011;21982;49.804;24.072;2022-09-24T15:12:26;7.90;;;3.53;;
35877;SDS011;21982;49.804;24.072;2022-09-24T15:14:58;6.82;;;3.47;;
35877;SDS011;21982;49.804;24.072;2022-09-24T15:19:56;9.35;;;3.72;;
35877;SDS011;21982;49.804;24.072;2022-09-24T15:22:31;7.40;;;4.30;;
35877;SDS011;21982;49.804;24.072;2022-09-24T15:24:57;7.97;;;3.45;;
35877;SDS011;21982;49.804;24.072;2022-09-24T15:27:24;8.85;;;3.53;;
35877;SDS011;21982;49.804;24.072;2022-09-24T15:30:11;9.77;;;5.28;;
35877;SDS011;21982;49.804;24.072;2022-09-24T15:32:43;8.48;;;3.83;;
35877;SDS011;21982;49.804;24.072;2022-09-24T15:35:11;7.70;;;3.80;;
35877;SDS011;21982;49.804;24.072;2022-09-24T15:37:39;8.75;;;3.58;;
35877;SDS011;21982;49.804;24.072;2022-09-24T15:40:05;8.00;;;3.97;;
35877;SDS011;21982;49.804;24.072;2022-09-24T15:42:38;15.93;;;5.25;;
35877;SDS011;21982;49.804;24.072;2022-09-24T15:45:08;8.88;;;4.25;;
35877;SDS011;21982;49.804;24.072;2022-09-24T15:47:39;7.82;;;4.43;;
35877;SDS011;21982;49.804;24.072;2022-09-24T15:50:05;10.45;;;4.30;;
35877;SDS011;21982;49.804;24.072;2022-09-24T15:52:30;10.43;;;4.97;;
35877;SDS011;21982;49.804;24.072;2022-09-24T15:54:57;11.27;;;5.35;;
35877;SDS011;21982;49.804;24.072;2022-09-24T15:57:25;16.92;;;6.43;;
35877;SDS011;21982;49.804;24.072;2022-09-24T15:59:51;8.63;;;5.70;;
35877;SDS011;21982;49.804;24.072;2022-09-24T16:02:22;9.93;;;4.78;;
35877;SDS011;21982;49.804;24.072;2022-09-24T16:04:53;8.45;;;3.80;;
35877;SDS011;21982;49.804;24.072;2022-09-24T16:07:18;10.02;;;4.30;;
35877;SDS011;21982;49.804;24.072;2022-09-24T16:09:46;10.18;;;4.85;;
35877;SDS011;21982;49.804;24.072;2022-09-24T16:12:15;9.75;;;5.35;;
35877;SDS011;21982;49.804;24.072;2022-09-24T16:14:52;13.10;;;5.60;;
35877;SDS011;21982;49.804;24.072;2022-09-24T16:17:23;9.18;;;4.60;;
35877;SDS011;21982;49.804;24.072;2022-09-24T16:19:50;6.22;;;3.75;;
35877;SDS011;21982;49.804;24.072;2022-09-24T16:22:18;9.18;;;6.13;;
35877;SDS011;21982;49.804;24.072;2022-09-24T16:24:47;32.85;;;19.42;;
35877;SDS011;21982;49.804;24.072;2022-09-24T16:27:12;13.93;;;7.90;;
35877;SDS011;21982;49.804;24.072;2022-09-24T16:29:38;8.68;;;5.25;;
35877;SDS011;21982;49.804;24.072;2022-09-24T16:32:13;7.38;;;4.05;;
35877;SDS011;21982;49.804;24.072;2022-09-24T16:34:42;6.25;;;3.65;;
35877;SDS011;21982;49.804;24.072;2022-09-24T16:37:08;8.70;;;5.30;;
35877;SDS011;21982;49.804;24.072;2022-09-24T16:39:34;10.63;;;5.25;;
35877;SDS011;21982;49.804;24.072;2022-09-24T16:42:05;11.05;;;6.00;;
35877;SDS011;21982;49.804;24.072;2022-09-24T16:44:30;7.57;;;4.53;;
35877;SDS011;21982;49.804;24.072;2022-09-24T16:46:56;9.35;;;5.18;;
35877;SDS011;21982;49.804;24.072;2022-09-24T16:49:22;8.52;;;4.60;;
35877;SDS011;21982;49.804;24.072;2022-09-24T16:51:47;8.10;;;4.00;;
35877;SDS011;21982;49.804;24.072;2022-09-24T16:54:13;11.02;;;4.25;;
35877;SDS011;21982;49.804;24.072;2022-09-24T16:56:38;21.85;;;13.27;;
35877;SDS011;21982;49.804;24.072;2022-09-24T16:59:04;19.95;;;12.73;;
35877;SDS011;21982;49.804;24.072;2022-09-24T17:01:33;19.23;;;10.32;;
35877;SDS011;21982;49.804;24.072;2022-09-24T17:03:59;13.63;;;9.13;;
35877;SDS011;21982;49.804;24.072;2022-09-24T17:06:30;13.63;;;7.35;;
35877;SDS011;21982;49.804;24.072;2022-09-24T17:09:03;30.00;;;9.38;;
35877;SDS011;21982;49.804;24.072;2022-09-24T17:11:48;13.73;;;8.80;;
35877;SDS011;21982;49.804;24.072;2022-09-24T17:14:14;14.27;;;8.40;;
35877;SDS011;21982;49.804;24.072;2022-09-24T17:16:41;29.75;;;20.65;;
35877;SDS011;21982;49.804;24.072;2022-09-24T17:19:10;15.25;;;8.82;;
35877;SDS011;21982;49.804;24.072;2022-09-24T17:21:40;12.77;;;7.50;;
35877;SDS011;21982;49.804;24.072;2022-09-24T17:24:09;12.77;;;7.57;;
35877;SDS011;21982;49.804;24.072;2022-09-24T17:26:36;35.30;;;20.67;;
35877;SDS011;21982;49.804;24.072;2022-09-24T17:29:03;21.52;;;13.63;;
35877;SDS011;21982;49.804;24.072;2022-09-24T17:31:29;148.50;;;86.57;;
35877;SDS011;21982;49.804;24.072;2022-09-24T17:34:01;175.95;;;101.13;;
35877;SDS011;21982;49.804;24.072;2022-09-24T17:36:39;392.67;;;267.70;;
35877;SDS011;21982;49.804;24.072;2022-09-24T17:39:05;278.67;;;180.35;;
35877;SDS011;21982;49.804;24.072;2022-09-24T17:41:34;153.93;;;101.90;;
35877;SDS011;21982;49.804;24.072;2022-09-24T17:44:00;119.35;;;81.93;;